X  Zatvori METAR podaci zračne luke     LDPL Pula Airport
Temperatura
25°C Temperatura
10°C Točka rosišta
39% Vlaga



Vjetar
14 KM/S
9 MPS
4 M/S
8 Čvorovi



80°
I
Trenutna situacija

Djelimično oblačno Djelimično oblačno
Tlak zraka 1011.92 (hPa) - 29.88 (inHg)
Vidljivost 6.2 (milje) - 10 (km)
Zračna luka
Kôd zračne luke LDPL

Lokacija: Pula Airport
Udaljenost: 39 (km)

Metar:
LDPL 131130Z 08008KT 050V140 9999 FEW055 25/10 Q1012 NOSIG

Vrijeme: 13-08-2022 13:30 CEST